sensor_id;sensor_type;location;lat;lon;timestamp;P1;durP1;ratioP1;P2;durP2;ratioP2
21299;SDS011;10809;49.476;11.016;2023-01-19T00:01:55;12.03;;;6.53;;
21299;SDS011;10809;49.476;11.016;2023-01-19T00:04:26;15.73;;;8.10;;
21299;SDS011;10809;49.476;11.016;2023-01-19T00:06:56;19.00;;;9.10;;
21299;SDS011;10809;49.476;11.016;2023-01-19T00:09:27;17.80;;;7.73;;
21299;SDS011;10809;49.476;11.016;2023-01-19T00:12:02;14.30;;;6.97;;
21299;SDS011;10809;49.476;11.016;2023-01-19T00:14:34;13.53;;;7.20;;
21299;SDS011;10809;49.476;11.016;2023-01-19T00:17:04;14.83;;;7.40;;
21299;SDS011;10809;49.476;11.016;2023-01-19T00:19:35;10.93;;;6.27;;
21299;SDS011;10809;49.476;11.016;2023-01-19T00:22:05;11.87;;;6.33;;
21299;SDS011;10809;49.476;11.016;2023-01-19T00:24:36;14.63;;;7.20;;
21299;SDS011;10809;49.476;11.016;2023-01-19T00:27:06;21.57;;;8.47;;
21299;SDS011;10809;49.476;11.016;2023-01-19T00:29:37;16.67;;;7.67;;
21299;SDS011;10809;49.476;11.016;2023-01-19T00:32:07;18.53;;;7.87;;
21299;SDS011;10809;49.476;11.016;2023-01-19T00:34:38;14.77;;;7.27;;
21299;SDS011;10809;49.476;11.016;2023-01-19T00:37:18;12.60;;;6.80;;
21299;SDS011;10809;49.476;11.016;2023-01-19T00:39:48;13.00;;;7.03;;
21299;SDS011;10809;49.476;11.016;2023-01-19T00:42:19;14.23;;;7.40;;
21299;SDS011;10809;49.476;11.016;2023-01-19T00:45:15;13.10;;;7.20;;
21299;SDS011;10809;49.476;11.016;2023-01-19T00:47:48;17.67;;;8.73;;
21299;SDS011;10809;49.476;11.016;2023-01-19T00:50:26;10.30;;;6.67;;
21299;SDS011;10809;49.476;11.016;2023-01-19T00:52:58;13.70;;;7.80;;
21299;SDS011;10809;49.476;11.016;2023-01-19T00:55:32;16.13;;;8.13;;
21299;SDS011;10809;49.476;11.016;2023-01-19T00:58:02;12.30;;;6.80;;
21299;SDS011;10809;49.476;11.016;2023-01-19T01:00:33;14.70;;;8.03;;
21299;SDS011;10809;49.476;11.016;2023-01-19T01:03:03;13.83;;;7.40;;
21299;SDS011;10809;49.476;11.016;2023-01-19T01:05:34;17.03;;;8.07;;
21299;SDS011;10809;49.476;11.016;2023-01-19T01:08:04;10.47;;;7.30;;
21299;SDS011;10809;49.476;11.016;2023-01-19T01:10:35;11.57;;;7.27;;
21299;SDS011;10809;49.476;11.016;2023-01-19T01:13:05;13.20;;;7.57;;
21299;SDS011;10809;49.476;11.016;2023-01-19T01:15:36;13.27;;;8.60;;
21299;SDS011;10809;49.476;11.016;2023-01-19T01:18:06;14.53;;;7.23;;
21299;SDS011;10809;49.476;11.016;2023-01-19T01:20:37;13.13;;;8.23;;
21299;SDS011;10809;49.476;11.016;2023-01-19T01:23:07;13.17;;;7.60;;
21299;SDS011;10809;49.476;11.016;2023-01-19T01:25:38;11.77;;;7.10;;
21299;SDS011;10809;49.476;11.016;2023-01-19T01:28:08;14.07;;;8.43;;
21299;SDS011;10809;49.476;11.016;2023-01-19T01:30:39;13.37;;;8.07;;
21299;SDS011;10809;49.476;11.016;2023-01-19T01:33:10;17.37;;;8.90;;
21299;SDS011;10809;49.476;11.016;2023-01-19T01:35:43;14.20;;;7.70;;
21299;SDS011;10809;49.476;11.016;2023-01-19T01:38:13;14.23;;;8.37;;
21299;SDS011;10809;49.476;11.016;2023-01-19T01:40:45;13.47;;;8.13;;
21299;SDS011;10809;49.476;11.016;2023-01-19T01:43:16;16.73;;;8.97;;
21299;SDS011;10809;49.476;11.016;2023-01-19T01:45:48;12.93;;;8.07;;
21299;SDS011;10809;49.476;11.016;2023-01-19T01:48:19;14.70;;;7.93;;
21299;SDS011;10809;49.476;11.016;2023-01-19T01:50:57;14.20;;;9.13;;
21299;SDS011;10809;49.476;11.016;2023-01-19T01:53:52;16.87;;;8.73;;
21299;SDS011;10809;49.476;11.016;2023-01-19T01:56:41;16.00;;;7.93;;
21299;SDS011;10809;49.476;11.016;2023-01-19T01:59:24;14.90;;;9.20;;
21299;SDS011;10809;49.476;11.016;2023-01-19T02:02:04;14.57;;;7.83;;
21299;SDS011;10809;49.476;11.016;2023-01-19T02:04:59;13.30;;;7.13;;
21299;SDS011;10809;49.476;11.016;2023-01-19T02:07:44;16.37;;;8.37;;
21299;SDS011;10809;49.476;11.016;2023-01-19T02:10:38;13.60;;;8.27;;
21299;SDS011;10809;49.476;11.016;2023-01-19T02:13:29;15.87;;;8.00;;
21299;SDS011;10809;49.476;11.016;2023-01-19T02:16:04;15.63;;;7.97;;
21299;SDS011;10809;49.476;11.016;2023-01-19T02:18:36;13.03;;;7.67;;
21299;SDS011;10809;49.476;11.016;2023-01-19T02:21:11;15.70;;;8.90;;
21299;SDS011;10809;49.476;11.016;2023-01-19T02:23:55;13.63;;;8.20;;
21299;SDS011;10809;49.476;11.016;2023-01-19T02:29:08;11.77;;;7.97;;
21299;SDS011;10809;49.476;11.016;2023-01-19T02:31:40;14.17;;;8.30;;
21299;SDS011;10809;49.476;11.016;2023-01-19T02:34:13;16.77;;;8.90;;
21299;SDS011;10809;49.476;11.016;2023-01-19T02:39:24;14.83;;;8.77;;
21299;SDS011;10809;49.476;11.016;2023-01-19T02:42:12;14.90;;;8.53;;
21299;SDS011;10809;49.476;11.016;2023-01-19T02:44:48;14.83;;;8.03;;
21299;SDS011;10809;49.476;11.016;2023-01-19T02:47:21;16.30;;;8.77;;
21299;SDS011;10809;49.476;11.016;2023-01-19T02:49:55;14.23;;;8.03;;
21299;SDS011;10809;49.476;11.016;2023-01-19T02:52:27;15.40;;;9.10;;
21299;SDS011;10809;49.476;11.016;2023-01-19T03:04:08;13.63;;;8.03;;
21299;SDS011;10809;49.476;11.016;2023-01-19T03:07:28;12.17;;;7.47;;
21299;SDS011;10809;49.476;11.016;2023-01-19T03:12:47;13.13;;;7.77;;
21299;SDS011;10809;49.476;11.016;2023-01-19T03:15:24;15.23;;;9.27;;
21299;SDS011;10809;49.476;11.016;2023-01-19T03:17:59;16.20;;;8.77;;
21299;SDS011;10809;49.476;11.016;2023-01-19T03:20:32;14.57;;;8.13;;
21299;SDS011;10809;49.476;11.016;2023-01-19T03:23:04;15.37;;;9.00;;
21299;SDS011;10809;49.476;11.016;2023-01-19T03:25:40;14.00;;;7.40;;
21299;SDS011;10809;49.476;11.016;2023-01-19T03:28:13;16.43;;;8.50;;
21299;SDS011;10809;49.476;11.016;2023-01-19T03:30:47;13.97;;;8.53;;
21299;SDS011;10809;49.476;11.016;2023-01-19T03:33:24;14.07;;;8.43;;
21299;SDS011;10809;49.476;11.016;2023-01-19T03:36:03;16.30;;;7.60;;
21299;SDS011;10809;49.476;11.016;2023-01-19T03:38:48;13.10;;;7.20;;
21299;SDS011;10809;49.476;11.016;2023-01-19T03:41:21;15.73;;;8.17;;
21299;SDS011;10809;49.476;11.016;2023-01-19T03:43:54;20.37;;;7.47;;
21299;SDS011;10809;49.476;11.016;2023-01-19T03:46:26;15.17;;;8.50;;
21299;SDS011;10809;49.476;11.016;2023-01-19T03:48:58;12.97;;;8.03;;
21299;SDS011;10809;49.476;11.016;2023-01-19T03:51:29;15.90;;;8.13;;
21299;SDS011;10809;49.476;11.016;2023-01-19T03:53:59;13.43;;;7.97;;
21299;SDS011;10809;49.476;11.016;2023-01-19T03:56:30;13.27;;;7.60;;
21299;SDS011;10809;49.476;11.016;2023-01-19T03:59:00;12.87;;;6.90;;
21299;SDS011;10809;49.476;11.016;2023-01-19T04:01:31;18.10;;;7.57;;
21299;SDS011;10809;49.476;11.016;2023-01-19T04:04:01;15.97;;;8.17;;
21299;SDS011;10809;49.476;11.016;2023-01-19T04:06:32;12.77;;;7.20;;
21299;SDS011;10809;49.476;11.016;2023-01-19T04:09:02;15.17;;;7.90;;
21299;SDS011;10809;49.476;11.016;2023-01-19T04:11:33;18.30;;;8.13;;
21299;SDS011;10809;49.476;11.016;2023-01-19T04:14:04;10.80;;;6.60;;
21299;SDS011;10809;49.476;11.016;2023-01-19T04:16:34;14.90;;;7.50;;
21299;SDS011;10809;49.476;11.016;2023-01-19T04:19:04;14.17;;;8.07;;
21299;SDS011;10809;49.476;11.016;2023-01-19T04:21:35;13.17;;;8.13;;
21299;SDS011;10809;49.476;11.016;2023-01-19T04:24:05;15.77;;;9.23;;
21299;SDS011;10809;49.476;11.016;2023-01-19T04:26:36;15.03;;;8.13;;
21299;SDS011;10809;49.476;11.016;2023-01-19T04:29:07;13.03;;;7.43;;
21299;SDS011;10809;49.476;11.016;2023-01-19T04:31:37;16.53;;;8.93;;
21299;SDS011;10809;49.476;11.016;2023-01-19T04:34:08;14.67;;;8.20;;
21299;SDS011;10809;49.476;11.016;2023-01-19T04:36:39;16.20;;;8.57;;
21299;SDS011;10809;49.476;11.016;2023-01-19T04:39:09;11.87;;;7.60;;
21299;SDS011;10809;49.476;11.016;2023-01-19T04:41:40;12.10;;;7.57;;
21299;SDS011;10809;49.476;11.016;2023-01-19T04:44:11;11.17;;;7.00;;
21299;SDS011;10809;49.476;11.016;2023-01-19T04:46:41;15.33;;;8.10;;
21299;SDS011;10809;49.476;11.016;2023-01-19T04:49:11;13.63;;;8.03;;
21299;SDS011;10809;49.476;11.016;2023-01-19T04:51:42;16.10;;;8.53;;
21299;SDS011;10809;49.476;11.016;2023-01-19T04:54:12;13.00;;;7.47;;
21299;SDS011;10809;49.476;11.016;2023-01-19T04:56:43;10.60;;;7.33;;
21299;SDS011;10809;49.476;11.016;2023-01-19T04:59:13;17.07;;;8.37;;
21299;SDS011;10809;49.476;11.016;2023-01-19T05:01:44;14.47;;;8.30;;
21299;SDS011;10809;49.476;11.016;2023-01-19T05:04:14;16.23;;;9.17;;
21299;SDS011;10809;49.476;11.016;2023-01-19T05:06:45;11.97;;;7.87;;
21299;SDS011;10809;49.476;11.016;2023-01-19T05:09:15;12.07;;;7.50;;
21299;SDS011;10809;49.476;11.016;2023-01-19T05:11:46;17.13;;;8.30;;
21299;SDS011;10809;49.476;11.016;2023-01-19T05:14:16;15.73;;;8.37;;
21299;SDS011;10809;49.476;11.016;2023-01-19T05:16:46;13.27;;;9.00;;
21299;SDS011;10809;49.476;11.016;2023-01-19T05:19:17;15.60;;;8.80;;
21299;SDS011;10809;49.476;11.016;2023-01-19T05:21:47;12.33;;;7.80;;
21299;SDS011;10809;49.476;11.016;2023-01-19T05:24:18;17.40;;;8.90;;
21299;SDS011;10809;49.476;11.016;2023-01-19T05:26:49;20.70;;;8.63;;
21299;SDS011;10809;49.476;11.016;2023-01-19T05:29:19;13.10;;;7.37;;
21299;SDS011;10809;49.476;11.016;2023-01-19T05:31:50;14.20;;;8.53;;
21299;SDS011;10809;49.476;11.016;2023-01-19T05:34:20;13.23;;;8.07;;
21299;SDS011;10809;49.476;11.016;2023-01-19T05:36:51;13.97;;;9.47;;
21299;SDS011;10809;49.476;11.016;2023-01-19T05:39:22;16.20;;;8.53;;
21299;SDS011;10809;49.476;11.016;2023-01-19T05:41:52;15.77;;;8.30;;
21299;SDS011;10809;49.476;11.016;2023-01-19T05:44:23;14.40;;;8.17;;
21299;SDS011;10809;49.476;11.016;2023-01-19T05:46:53;12.77;;;8.43;;
21299;SDS011;10809;49.476;11.016;2023-01-19T05:49:24;16.50;;;9.13;;
21299;SDS011;10809;49.476;11.016;2023-01-19T05:51:54;14.87;;;8.40;;
21299;SDS011;10809;49.476;11.016;2023-01-19T05:54:25;15.20;;;8.53;;
21299;SDS011;10809;49.476;11.016;2023-01-19T05:56:55;17.40;;;8.20;;
21299;SDS011;10809;49.476;11.016;2023-01-19T05:59:27;14.53;;;8.03;;
21299;SDS011;10809;49.476;11.016;2023-01-19T06:01:58;13.93;;;8.50;;
21299;SDS011;10809;49.476;11.016;2023-01-19T06:04:28;11.97;;;7.90;;
21299;SDS011;10809;49.476;11.016;2023-01-19T06:06:59;14.00;;;8.67;;
21299;SDS011;10809;49.476;11.016;2023-01-19T06:09:31;18.17;;;9.07;;
21299;SDS011;10809;49.476;11.016;2023-01-19T06:12:02;18.53;;;9.53;;
21299;SDS011;10809;49.476;11.016;2023-01-19T06:14:35;15.53;;;8.43;;
21299;SDS011;10809;49.476;11.016;2023-01-19T06:17:07;14.00;;;8.97;;
21299;SDS011;10809;49.476;11.016;2023-01-19T06:19:37;17.07;;;9.50;;
21299;SDS011;10809;49.476;11.016;2023-01-19T06:22:08;17.60;;;9.10;;
21299;SDS011;10809;49.476;11.016;2023-01-19T06:24:38;17.37;;;10.73;;
21299;SDS011;10809;49.476;11.016;2023-01-19T06:27:08;15.10;;;9.47;;
21299;SDS011;10809;49.476;11.016;2023-01-19T06:29:40;15.50;;;8.23;;
21299;SDS011;10809;49.476;11.016;2023-01-19T06:32:10;13.87;;;8.77;;
21299;SDS011;10809;49.476;11.016;2023-01-19T06:34:41;16.30;;;8.57;;
21299;SDS011;10809;49.476;11.016;2023-01-19T06:37:12;17.17;;;9.67;;
21299;SDS011;10809;49.476;11.016;2023-01-19T06:39:45;13.57;;;8.33;;
21299;SDS011;10809;49.476;11.016;2023-01-19T06:42:15;15.77;;;8.73;;
21299;SDS011;10809;49.476;11.016;2023-01-19T06:44:46;15.37;;;9.53;;
21299;SDS011;10809;49.476;11.016;2023-01-19T06:47:17;13.17;;;8.57;;
21299;SDS011;10809;49.476;11.016;2023-01-19T06:49:47;17.23;;;9.27;;
21299;SDS011;10809;49.476;11.016;2023-01-19T06:52:18;14.17;;;8.80;;
21299;SDS011;10809;49.476;11.016;2023-01-19T06:54:49;21.70;;;10.30;;
21299;SDS011;10809;49.476;11.016;2023-01-19T06:57:20;21.57;;;9.80;;
21299;SDS011;10809;49.476;11.016;2023-01-19T06:59:50;15.67;;;9.23;;
21299;SDS011;10809;49.476;11.016;2023-01-19T07:02:20;17.63;;;9.37;;
21299;SDS011;10809;49.476;11.016;2023-01-19T07:04:52;19.83;;;10.37;;
21299;SDS011;10809;49.476;11.016;2023-01-19T07:07:23;16.77;;;9.77;;
21299;SDS011;10809;49.476;11.016;2023-01-19T07:09:54;17.30;;;9.53;;
21299;SDS011;10809;49.476;11.016;2023-01-19T07:12:24;17.03;;;10.67;;
21299;SDS011;10809;49.476;11.016;2023-01-19T07:14:55;15.77;;;8.50;;
21299;SDS011;10809;49.476;11.016;2023-01-19T07:17:25;16.57;;;9.60;;
21299;SDS011;10809;49.476;11.016;2023-01-19T07:19:56;14.77;;;8.47;;
21299;SDS011;10809;49.476;11.016;2023-01-19T07:22:26;17.47;;;8.80;;
21299;SDS011;10809;49.476;11.016;2023-01-19T07:24:56;14.83;;;9.37;;
21299;SDS011;10809;49.476;11.016;2023-01-19T07:27:27;15.57;;;8.80;;
21299;SDS011;10809;49.476;11.016;2023-01-19T07:29:58;16.97;;;8.40;;
21299;SDS011;10809;49.476;11.016;2023-01-19T07:32:30;16.60;;;8.93;;
21299;SDS011;10809;49.476;11.016;2023-01-19T07:35:00;15.43;;;9.43;;
21299;SDS011;10809;49.476;11.016;2023-01-19T07:37:31;16.63;;;8.57;;
21299;SDS011;10809;49.476;11.016;2023-01-19T07:40:01;18.37;;;9.57;;
21299;SDS011;10809;49.476;11.016;2023-01-19T07:42:32;14.47;;;9.00;;
21299;SDS011;10809;49.476;11.016;2023-01-19T07:45:03;14.77;;;8.67;;
21299;SDS011;10809;49.476;11.016;2023-01-19T07:47:34;16.13;;;8.73;;
21299;SDS011;10809;49.476;11.016;2023-01-19T07:50:04;13.70;;;8.83;;
21299;SDS011;10809;49.476;11.016;2023-01-19T07:52:35;15.97;;;8.83;;
21299;SDS011;10809;49.476;11.016;2023-01-19T07:55:06;13.93;;;8.40;;
21299;SDS011;10809;49.476;11.016;2023-01-19T07:57:37;16.60;;;8.83;;
21299;SDS011;10809;49.476;11.016;2023-01-19T08:00:07;13.17;;;8.30;;
21299;SDS011;10809;49.476;11.016;2023-01-19T08:02:45;13.17;;;8.80;;
21299;SDS011;10809;49.476;11.016;2023-01-19T08:05:19;14.70;;;8.77;;
21299;SDS011;10809;49.476;11.016;2023-01-19T08:07:50;11.20;;;7.40;;
21299;SDS011;10809;49.476;11.016;2023-01-19T08:10:22;13.63;;;8.33;;
21299;SDS011;10809;49.476;11.016;2023-01-19T08:12:56;17.10;;;8.13;;
21299;SDS011;10809;49.476;11.016;2023-01-19T08:15:27;13.37;;;8.53;;
21299;SDS011;10809;49.476;11.016;2023-01-19T08:17:58;13.33;;;7.27;;
21299;SDS011;10809;49.476;11.016;2023-01-19T08:20:34;11.63;;;7.33;;
21299;SDS011;10809;49.476;11.016;2023-01-19T08:23:05;12.27;;;7.27;;
21299;SDS011;10809;49.476;11.016;2023-01-19T08:25:37;12.67;;;7.27;;
21299;SDS011;10809;49.476;11.016;2023-01-19T08:28:14;12.20;;;8.00;;
21299;SDS011;10809;49.476;11.016;2023-01-19T08:30:45;14.17;;;7.60;;
21299;SDS011;10809;49.476;11.016;2023-01-19T08:33:23;12.23;;;7.53;;
21299;SDS011;10809;49.476;11.016;2023-01-19T08:35:59;13.23;;;6.93;;
21299;SDS011;10809;49.476;11.016;2023-01-19T08:38:30;12.07;;;7.67;;
21299;SDS011;10809;49.476;11.016;2023-01-19T08:41:01;16.70;;;7.37;;
21299;SDS011;10809;49.476;11.016;2023-01-19T08:43:34;11.60;;;6.90;;
21299;SDS011;10809;49.476;11.016;2023-01-19T08:46:04;12.30;;;7.67;;
21299;SDS011;10809;49.476;11.016;2023-01-19T08:48:35;15.13;;;7.80;;
21299;SDS011;10809;49.476;11.016;2023-01-19T08:51:06;13.27;;;7.33;;
21299;SDS011;10809;49.476;11.016;2023-01-19T08:53:37;12.50;;;7.73;;
21299;SDS011;10809;49.476;11.016;2023-01-19T08:56:08;12.83;;;7.10;;
21299;SDS011;10809;49.476;11.016;2023-01-19T08:58:43;10.70;;;6.50;;
21299;SDS011;10809;49.476;11.016;2023-01-19T09:01:14;10.30;;;6.40;;
21299;SDS011;10809;49.476;11.016;2023-01-19T09:03:51;8.63;;;6.07;;
21299;SDS011;10809;49.476;11.016;2023-01-19T09:06:27;10.10;;;6.40;;
21299;SDS011;10809;49.476;11.016;2023-01-19T09:08:58;10.10;;;6.63;;
21299;SDS011;10809;49.476;11.016;2023-01-19T09:11:29;9.13;;;5.97;;
21299;SDS011;10809;49.476;11.016;2023-01-19T09:14:00;10.13;;;6.57;;
21299;SDS011;10809;49.476;11.016;2023-01-19T09:16:33;8.73;;;6.30;;
21299;SDS011;10809;49.476;11.016;2023-01-19T09:19:03;10.67;;;7.37;;
21299;SDS011;10809;49.476;11.016;2023-01-19T09:21:37;12.43;;;6.37;;
21299;SDS011;10809;49.476;11.016;2023-01-19T09:24:10;14.00;;;6.70;;
21299;SDS011;10809;49.476;11.016;2023-01-19T09:26:40;12.47;;;6.50;;
21299;SDS011;10809;49.476;11.016;2023-01-19T09:29:11;12.73;;;6.07;;
21299;SDS011;10809;49.476;11.016;2023-01-19T09:31:42;11.10;;;7.00;;
21299;SDS011;10809;49.476;11.016;2023-01-19T09:34:13;8.53;;;5.40;;
21299;SDS011;10809;49.476;11.016;2023-01-19T09:36:45;10.13;;;6.90;;
21299;SDS011;10809;49.476;11.016;2023-01-19T09:39:16;10.00;;;6.50;;
21299;SDS011;10809;49.476;11.016;2023-01-19T09:41:54;12.43;;;6.83;;
21299;SDS011;10809;49.476;11.016;2023-01-19T09:44:38;9.17;;;5.80;;
21299;SDS011;10809;49.476;11.016;2023-01-19T09:47:14;8.63;;;5.90;;
21299;SDS011;10809;49.476;11.016;2023-01-19T09:49:48;10.37;;;5.70;;
21299;SDS011;10809;49.476;11.016;2023-01-19T09:52:28;7.00;;;5.23;;
21299;SDS011;10809;49.476;11.016;2023-01-19T09:55:03;8.23;;;5.33;;
21299;SDS011;10809;49.476;11.016;2023-01-19T09:57:40;10.43;;;5.90;;
21299;SDS011;10809;49.476;11.016;2023-01-19T10:00:13;9.03;;;5.90;;
21299;SDS011;10809;49.476;11.016;2023-01-19T10:02:52;10.37;;;5.90;;
21299;SDS011;10809;49.476;11.016;2023-01-19T10:05:38;9.13;;;5.50;;
21299;SDS011;10809;49.476;11.016;2023-01-19T10:10:51;8.60;;;5.50;;
21299;SDS011;10809;49.476;11.016;2023-01-19T10:19:46;11.90;;;6.00;;
21299;SDS011;10809;49.476;11.016;2023-01-19T10:22:25;9.63;;;5.70;;
21299;SDS011;10809;49.476;11.016;2023-01-19T10:24:59;10.87;;;4.87;;
21299;SDS011;10809;49.476;11.016;2023-01-19T10:27:36;8.33;;;4.70;;
21299;SDS011;10809;49.476;11.016;2023-01-19T10:30:07;6.43;;;4.60;;
21299;SDS011;10809;49.476;11.016;2023-01-19T10:32:44;5.63;;;4.37;;
21299;SDS011;10809;49.476;11.016;2023-01-19T10:35:16;6.73;;;4.40;;
21299;SDS011;10809;49.476;11.016;2023-01-19T10:37:53;6.03;;;4.30;;
21299;SDS011;10809;49.476;11.016;2023-01-19T10:49:25;6.50;;;4.17;;
21299;SDS011;10809;49.476;11.016;2023-01-19T10:52:05;8.90;;;4.83;;
21299;SDS011;10809;49.476;11.016;2023-01-19T10:54:38;7.87;;;4.40;;
21299;SDS011;10809;49.476;11.016;2023-01-19T10:57:14;7.53;;;4.37;;
21299;SDS011;10809;49.476;11.016;2023-01-19T10:59:59;6.73;;;4.73;;
21299;SDS011;10809;49.476;11.016;2023-01-19T11:02:33;6.67;;;4.17;;
21299;SDS011;10809;49.476;11.016;2023-01-19T11:08:45;4.40;;;2.83;;
21299;SDS011;10809;49.476;11.016;2023-01-19T11:11:18;6.37;;;3.90;;
21299;SDS011;10809;49.476;11.016;2023-01-19T11:14:09;7.23;;;3.73;;
21299;SDS011;10809;49.476;11.016;2023-01-19T11:16:47;6.83;;;3.30;;
21299;SDS011;10809;49.476;11.016;2023-01-19T11:19:23;4.40;;;2.73;;
21299;SDS011;10809;49.476;11.016;2023-01-19T11:22:14;3.43;;;2.90;;
21299;SDS011;10809;49.476;11.016;2023-01-19T11:24:50;6.70;;;3.00;;
21299;SDS011;10809;49.476;11.016;2023-01-19T11:27:21;4.73;;;2.37;;
21299;SDS011;10809;49.476;11.016;2023-01-19T11:32:37;2.53;;;2.33;;
21299;SDS011;10809;49.476;11.016;2023-01-19T11:40:35;4.83;;;3.13;;
21299;SDS011;10809;49.476;11.016;2023-01-19T11:43:09;5.20;;;2.80;;
21299;SDS011;10809;49.476;11.016;2023-01-19T11:45:42;6.40;;;3.00;;
21299;SDS011;10809;49.476;11.016;2023-01-19T11:48:17;5.17;;;3.17;;
21299;SDS011;10809;49.476;11.016;2023-01-19T11:51:15;6.23;;;2.73;;
21299;SDS011;10809;49.476;11.016;2023-01-19T11:53:50;3.33;;;2.97;;
21299;SDS011;10809;49.476;11.016;2023-01-19T11:56:22;4.03;;;2.70;;
21299;SDS011;10809;49.476;11.016;2023-01-19T11:58:58;4.80;;;2.67;;
21299;SDS011;10809;49.476;11.016;2023-01-19T12:01:29;4.20;;;2.93;;
21299;SDS011;10809;49.476;11.016;2023-01-19T12:04:05;6.77;;;3.43;;
21299;SDS011;10809;49.476;11.016;2023-01-19T12:06:47;5.73;;;2.73;;
21299;SDS011;10809;49.476;11.016;2023-01-19T12:09:38;3.93;;;2.83;;
21299;SDS011;10809;49.476;11.016;2023-01-19T12:15:01;3.53;;;2.83;;
21299;SDS011;10809;49.476;11.016;2023-01-19T12:17:53;4.80;;;2.73;;
21299;SDS011;10809;49.476;11.016;2023-01-19T12:20:32;6.67;;;3.00;;
21299;SDS011;10809;49.476;11.016;2023-01-19T12:28:33;8.70;;;3.67;;
21299;SDS011;10809;49.476;11.016;2023-01-19T12:31:08;7.30;;;3.23;;
21299;SDS011;10809;49.476;11.016;2023-01-19T12:33:42;7.40;;;3.10;;
21299;SDS011;10809;49.476;11.016;2023-01-19T12:38:56;6.70;;;2.97;;
21299;SDS011;10809;49.476;11.016;2023-01-19T12:41:34;5.27;;;3.97;;
21299;SDS011;10809;49.476;11.016;2023-01-19T12:46:55;9.17;;;3.67;;
21299;SDS011;10809;49.476;11.016;2023-01-19T13:05:49;6.63;;;2.77;;
21299;SDS011;10809;49.476;11.016;2023-01-19T13:08:26;4.47;;;3.10;;
21299;SDS011;10809;49.476;11.016;2023-01-19T13:13:34;4.47;;;3.17;;
21299;SDS011;10809;49.476;11.016;2023-01-19T13:18:58;6.47;;;2.87;;
21299;SDS011;10809;49.476;11.016;2023-01-19T13:21:31;4.70;;;3.17;;
21299;SDS011;10809;49.476;11.016;2023-01-19T13:24:07;3.33;;;2.50;;
21299;SDS011;10809;49.476;11.016;2023-01-19T13:31:53;5.10;;;3.00;;
21299;SDS011;10809;49.476;11.016;2023-01-19T13:34:38;7.33;;;2.63;;
21299;SDS011;10809;49.476;11.016;2023-01-19T13:37:17;4.43;;;3.13;;
21299;SDS011;10809;49.476;11.016;2023-01-19T13:39:50;3.17;;;2.70;;
21299;SDS011;10809;49.476;11.016;2023-01-19T13:42:26;4.60;;;3.30;;
21299;SDS011;10809;49.476;11.016;2023-01-19T13:45:01;4.90;;;2.93;;
21299;SDS011;10809;49.476;11.016;2023-01-19T13:47:44;4.47;;;3.10;;
21299;SDS011;10809;49.476;11.016;2023-01-19T13:52:55;3.87;;;2.73;;
21299;SDS011;10809;49.476;11.016;2023-01-19T13:55:29;9.43;;;3.20;;
21299;SDS011;10809;49.476;11.016;2023-01-19T13:58:00;4.90;;;3.60;;
21299;SDS011;10809;49.476;11.016;2023-01-19T14:00:30;4.63;;;2.90;;
21299;SDS011;10809;49.476;11.016;2023-01-19T14:05:47;4.13;;;3.30;;
21299;SDS011;10809;49.476;11.016;2023-01-19T14:08:20;8.00;;;3.17;;
21299;SDS011;10809;49.476;11.016;2023-01-19T14:13:32;3.47;;;2.90;;
21299;SDS011;10809;49.476;11.016;2023-01-19T14:16:09;5.03;;;3.20;;
21299;SDS011;10809;49.476;11.016;2023-01-19T14:18:44;4.90;;;3.23;;
21299;SDS011;10809;49.476;11.016;2023-01-19T14:21:15;5.13;;;3.33;;
21299;SDS011;10809;49.476;11.016;2023-01-19T14:24:05;7.93;;;3.80;;
21299;SDS011;10809;49.476;11.016;2023-01-19T14:29:28;5.20;;;3.50;;
21299;SDS011;10809;49.476;11.016;2023-01-19T14:32:11;5.07;;;3.13;;
21299;SDS011;10809;49.476;11.016;2023-01-19T14:34:49;4.40;;;3.00;;
21299;SDS011;10809;49.476;11.016;2023-01-19T14:45:17;6.23;;;3.80;;
21299;SDS011;10809;49.476;11.016;2023-01-19T14:48:18;6.87;;;4.13;;
21299;SDS011;10809;49.476;11.016;2023-01-19T14:50:51;5.33;;;3.17;;
21299;SDS011;10809;49.476;11.016;2023-01-19T14:53:32;5.67;;;2.87;;
21299;SDS011;10809;49.476;11.016;2023-01-19T14:56:06;5.60;;;3.77;;
21299;SDS011;10809;49.476;11.016;2023-01-19T14:58:36;5.60;;;3.73;;
21299;SDS011;10809;49.476;11.016;2023-01-19T15:01:07;6.83;;;3.17;;
21299;SDS011;10809;49.476;11.016;2023-01-19T15:03:37;5.20;;;2.80;;
21299;SDS011;10809;49.476;11.016;2023-01-19T15:06:15;5.07;;;3.90;;
21299;SDS011;10809;49.476;11.016;2023-01-19T15:08:47;4.30;;;3.20;;
21299;SDS011;10809;49.476;11.016;2023-01-19T15:11:28;4.50;;;3.10;;
21299;SDS011;10809;49.476;11.016;2023-01-19T15:14:00;5.67;;;3.07;;
21299;SDS011;10809;49.476;11.016;2023-01-19T15:16:32;4.03;;;3.37;;
21299;SDS011;10809;49.476;11.016;2023-01-19T15:19:03;6.87;;;3.03;;
21299;SDS011;10809;49.476;11.016;2023-01-19T15:21:34;10.70;;;3.40;;
21299;SDS011;10809;49.476;11.016;2023-01-19T15:24:04;4.23;;;3.30;;
21299;SDS011;10809;49.476;11.016;2023-01-19T15:26:37;5.17;;;2.90;;
21299;SDS011;10809;49.476;11.016;2023-01-19T15:29:20;5.53;;;2.97;;
21299;SDS011;10809;49.476;11.016;2023-01-19T15:31:53;5.77;;;3.40;;
21299;SDS011;10809;49.476;11.016;2023-01-19T15:34:23;4.67;;;3.47;;
21299;SDS011;10809;49.476;11.016;2023-01-19T15:36:54;3.80;;;2.80;;
21299;SDS011;10809;49.476;11.016;2023-01-19T15:39:24;6.67;;;3.60;;
21299;SDS011;10809;49.476;11.016;2023-01-19T15:41:55;5.27;;;3.60;;
21299;SDS011;10809;49.476;11.016;2023-01-19T15:44:25;6.30;;;3.43;;
21299;SDS011;10809;49.476;11.016;2023-01-19T15:46:56;7.73;;;3.43;;
21299;SDS011;10809;49.476;11.016;2023-01-19T15:49:26;7.33;;;3.87;;
21299;SDS011;10809;49.476;11.016;2023-01-19T15:51:57;3.83;;;2.93;;
21299;SDS011;10809;49.476;11.016;2023-01-19T15:54:27;5.30;;;3.20;;
21299;SDS011;10809;49.476;11.016;2023-01-19T15:56:57;5.00;;;3.10;;
21299;SDS011;10809;49.476;11.016;2023-01-19T15:59:28;5.20;;;3.40;;
21299;SDS011;10809;49.476;11.016;2023-01-19T16:01:58;5.57;;;3.47;;
21299;SDS011;10809;49.476;11.016;2023-01-19T16:04:28;6.27;;;3.63;;
21299;SDS011;10809;49.476;11.016;2023-01-19T16:06:59;5.80;;;3.60;;
21299;SDS011;10809;49.476;11.016;2023-01-19T16:09:29;6.93;;;3.83;;
21299;SDS011;10809;49.476;11.016;2023-01-19T16:11:59;5.93;;;3.83;;
21299;SDS011;10809;49.476;11.016;2023-01-19T16:14:30;5.00;;;3.47;;
21299;SDS011;10809;49.476;11.016;2023-01-19T16:17:00;6.40;;;3.20;;
21299;SDS011;10809;49.476;11.016;2023-01-19T16:19:31;7.03;;;4.90;;
21299;SDS011;10809;49.476;11.016;2023-01-19T16:22:01;4.83;;;3.43;;
21299;SDS011;10809;49.476;11.016;2023-01-19T16:24:32;4.43;;;3.47;;
21299;SDS011;10809;49.476;11.016;2023-01-19T16:27:02;6.57;;;3.43;;
21299;SDS011;10809;49.476;11.016;2023-01-19T16:29:33;6.07;;;3.67;;
21299;SDS011;10809;49.476;11.016;2023-01-19T16:32:03;5.57;;;3.37;;
21299;SDS011;10809;49.476;11.016;2023-01-19T16:34:34;8.60;;;3.33;;
21299;SDS011;10809;49.476;11.016;2023-01-19T16:37:04;3.80;;;2.87;;
21299;SDS011;10809;49.476;11.016;2023-01-19T16:39:35;6.50;;;3.27;;
21299;SDS011;10809;49.476;11.016;2023-01-19T16:42:05;6.50;;;4.10;;
21299;SDS011;10809;49.476;11.016;2023-01-19T16:44:36;8.37;;;3.50;;
21299;SDS011;10809;49.476;11.016;2023-01-19T16:47:06;5.83;;;4.27;;
21299;SDS011;10809;49.476;11.016;2023-01-19T16:49:37;6.57;;;3.43;;